Terminal Aerodrome Forecast
Issued by NWS

Home | Current Version | Previous Version | Text Only | Print | Product List | Glossary On
Versions: 1 2 3 4 5 6 7 8 9 10 11 12
000
FTUS41 KLWX 292339
TAFMTN
TAF
KMTN 292339Z 3000/3024 17008KT P6SM SCT090
     FM301300 VRB03KT P6SM SCT060
     FM301900 15007KT P6SM BKN070
      AMD NOT SKED 3002/3012=

USA.gov is the U.S. government's official web portal to all federal, state and local government web resources and services.